Track Баргамон Кирилл

Time Latitude Longitude Accuracy (66% radius in meters) Altitude (meters) Speed (km/hour) Bearing (degrees) Battery (%) GPS flag
06:28:34 57.211736 60.111940 0 0 0 0 1 delete
06:28:33 57.211743 60.111949 0 0 0 0 1 delete
06:28:29 57.211790 60.112152 0 0 0 0 1 delete
06:28:24 57.211770 60.112367 0 0 0 0 1 delete
06:28:22 57.211763 60.112439 0 0 0 0 1 delete
06:28:17 57.211750 60.112651 0 0 0 0 1 delete
06:28:14 57.211739 60.112744 0 0 0 0 1 delete
06:28:10 57.211616 60.112871 0 0 0 0 1 delete
06:28:06 57.211479 60.112942 0 0 0 0 1 delete
06:28:01 57.211294 60.112957 0 0 0 0 1 delete
06:27:57 57.211133 60.112777 0 0 0 0 1 delete
06:27:55 57.211069 60.112670 0 0 0 0 1 delete
06:27:50 57.210912 60.112472 0 0 0 0 1 delete
06:27:47 57.210812 60.112365 0 0 0 0 1 delete
06:27:43 57.210677 60.112217 0 0 0 0 1 delete
06:27:39 57.210512 60.112168 0 0 0 0 1 delete
06:27:34 57.210353 60.112284 0 0 0 0 1 delete
06:27:31 57.210271 60.112397 0 0 0 0 1 delete
06:27:27 57.210238 60.112639 0 0 0 0 1 delete
06:27:22 57.210300 60.112851 0 0 0 0 1 delete
06:27:18 57.210308 60.112879 0 0 0 0 1 delete
06:27:15 57.210305 60.112955 0 0 0 0 1 delete
06:27:11 57.210244 60.113164 0 0 0 0 1 delete
06:27:07 57.210094 60.113258 0 0 0 0 1 delete
06:27:02 57.209940 60.113187 0 0 0 0 1 delete
06:27:01 57.209907 60.113137 0 0 0 0 1 delete
06:26:57 57.209737 60.113090 0 0 0 0 1 delete
06:26:55 57.209661 60.113054 0 0 0 0 1 delete
06:26:50 57.209460 60.112970 0 0 0 0 1 delete
06:26:49 57.209420 60.112965 0 0 0 0 1 delete
06:26:44 57.209266 60.112941 0 0 0 0 1 delete
06:26:43 57.209260 60.112931 0 0 0 0 1 delete
06:26:36 57.209196 60.112879 0 0 0 0 1 delete
06:26:33 57.209059 60.112921 0 0 0 0 1 delete
06:26:28 57.208821 60.113168 0 0 0 0 1 delete
06:26:26 57.208715 60.113180 0 0 0 0 1 delete
06:26:20 57.208365 60.113179 0 0 0 0 1 delete
06:26:14 57.208008 60.113186 0 0 0 0 1 delete
06:26:10 57.207817 60.113254 0 0 0 0 1 delete
06:26:07 57.207661 60.113233 0 0 0 0 1 delete
06:26:03 57.207510 60.113121 0 0 0 0 1 delete
06:25:58 57.207397 60.112921 0 0 0 0 1 delete
06:25:54 57.207316 60.112806 0 0 0 0 1 delete
06:25:50 57.207225 60.112640 0 0 0 0 1 delete
06:25:46 57.207089 60.112518 0 0 0 0 1 delete
06:25:41 57.206938 60.112336 0 0 0 0 1 delete
06:25:39 57.206877 60.112248 0 0 0 0 1 delete
06:25:35 57.206728 60.112203 0 0 0 0 1 delete
06:25:31 57.206645 60.112078 0 0 0 0 1 delete
06:25:29 57.206670 60.111970 0 0 0 0 1 delete